Terminal Aerodrome Forecast
Issued by NWS

Home | Current Version | Previous Version | Text Only | Print | Product List | Glossary On
Versions: 1 2 3 4 5 6 7 8 9 10 11 12 13 14 15 16 17
000
FTUS43 KIND 301100
TAFLAF
TAF
KLAF 301130Z 3012/3112 31012G21KT P6SM BKN035
     FM301500 34012KT P6SM BKN035
     FM310100 29004KT P6SM SCT035 SCT250
     FM310400 VRB03KT P6SM SCT250
      AMD LTD TO CLD VIS AND WIND TIL 301400=

USA.gov is the U.S. government's official web portal to all federal, state and local government web resources and services.